Time;durP1;ratioP1;P1;durP2;ratioP2;P2;SDS_P1;SDS_P2;PMS_P1;PMS_P2;Temp;Humidity;BMP_temperature;BMP_pressure;BME280_temperature;BME280_humidity;BME280_pressure;Samples;Min_cycle;Max_cycle;Signal;HPM_P1;HPM_P2
2022/01/02 00:00:44;;;;;;;9.15;5.20;;;12.00;99.90;;;;;;5105083;28;20051;-75
2022/01/02 00:03:13;;;;;;;9.75;5.22;;;12.20;99.90;;;;;;5085969;28;20115;-75
2022/01/02 00:05:40;;;;;;;8.43;5.80;;;12.10;99.90;;;;;;5104995;28;20051;-75
2022/01/02 00:08:08;;;;;;;8.80;5.50;;;12.10;99.90;;;;;;5088627;28;20055;-75
2022/01/02 00:10:48;;;;;;;9.27;5.72;;;12.00;99.90;;;;;;5084240;28;20048;-75
2022/01/02 00:13:28;;;;;;;9.35;5.82;;;12.00;99.90;;;;;;5087709;28;20419;-75
2022/01/02 00:15:57;;;;;;;9.05;5.90;;;11.90;99.90;;;;;;5105039;28;20095;-75
2022/01/02 00:18:27;;;;;;;8.88;5.63;;;11.80;99.90;;;;;;5088008;28;20070;-75
2022/01/02 00:20:55;;;;;;;11.38;5.82;;;11.80;99.90;;;;;;5083720;28;20134;-75
2022/01/02 00:23:24;;;;;;;8.75;6.18;;;11.80;99.90;;;;;;5086865;28;20047;-75
2022/01/02 00:25:54;;;;;;;11.20;6.15;;;11.90;99.90;;;;;;5077812;28;20048;-75
2022/01/02 00:28:20;;;;;;;9.63;5.85;;;11.90;99.90;;;;;;5090254;28;20089;-75
2022/01/02 00:30:47;;;;;;;9.48;5.85;;;11.90;99.90;;;;;;5088633;28;20048;-75
2022/01/02 00:33:13;;;;;;;8.88;5.22;;;11.80;99.90;;;;;;5088974;28;20105;-75
2022/01/02 00:35:39;;;;;;;8.48;6.05;;;11.90;99.90;;;;;;5073644;28;20044;-75
2022/01/02 00:38:17;;;;;;;10.25;5.90;;;12.00;99.90;;;;;;5090446;28;20173;-75
2022/01/02 00:40:46;;;;;;;10.02;6.50;;;12.00;99.90;;;;;;5089858;28;20126;-75
2022/01/02 00:43:15;;;;;;;8.60;5.57;;;11.90;99.90;;;;;;5089653;28;20118;-75
2022/01/02 00:45:45;;;;;;;9.38;5.65;;;11.70;99.90;;;;;;5091091;28;20048;-75
2022/01/02 00:48:12;;;;;;;9.38;6.20;;;11.70;99.90;;;;;;5090760;28;20071;-75
2022/01/02 00:50:52;;;;;;;9.15;6.05;;;11.80;99.90;;;;;;5108768;28;20471;-75
2022/01/02 00:53:20;;;;;;;9.02;5.93;;;11.60;99.90;;;;;;5083304;28;20048;-75
2022/01/02 00:55:56;;;;;;;11.38;6.50;;;11.60;99.90;;;;;;5108414;28;20051;-75
2022/01/02 00:58:35;;;;;;;10.25;6.60;;;11.60;99.90;;;;;;5089357;28;20622;-75
2022/01/02 01:01:05;;;;;;;9.27;6.45;;;11.80;99.90;;;;;;5095711;28;20100;-75
2022/01/02 01:03:32;;;;;;;10.73;6.45;;;11.70;99.90;;;;;;5090435;28;20048;-75
2022/01/02 01:06:04;;;;;;;10.48;6.60;;;11.60;99.90;;;;;;5090243;28;20052;-75
2022/01/02 01:08:31;;;;;;;8.40;6.28;;;11.60;99.90;;;;;;5108036;28;20044;-75
2022/01/02 01:10:59;;;;;;;13.48;6.63;;;11.70;99.90;;;;;;5089330;28;20060;-75
2022/01/02 01:13:25;;;;;;;13.52;6.85;;;11.60;99.90;;;;;;5091472;28;20055;-75
2022/01/02 01:15:52;;;;;;;10.45;6.28;;;11.60;99.90;;;;;;5090568;28;20067;-75
2022/01/02 01:18:17;;;;;;;9.32;5.97;;;11.90;99.90;;;;;;5089670;28;20087;-76
2022/01/02 01:20:46;;;;;;;8.40;5.93;;;11.70;99.90;;;;;;5093131;28;20044;-75
2022/01/02 01:23:16;;;;;;;12.82;7.00;;;11.60;99.90;;;;;;5094841;28;20066;-76
2022/01/02 01:25:48;;;;;;;10.65;7.03;;;11.80;99.90;;;;;;5110787;28;20054;-75
2022/01/02 01:28:15;;;;;;;13.13;7.22;;;11.80;99.90;;;;;;5087006;28;20075;-75
2022/01/02 01:30:41;;;;;;;9.95;6.43;;;11.70;99.90;;;;;;5092180;28;20052;-75
2022/01/02 01:33:07;;;;;;;12.82;7.00;;;11.80;99.90;;;;;;5089016;28;20051;-75
2022/01/02 01:35:34;;;;;;;12.90;6.60;;;11.60;99.90;;;;;;5089554;28;20048;-75
2022/01/02 01:38:00;;;;;;;10.98;6.60;;;11.70;99.90;;;;;;5088938;28;20056;-75
2022/01/02 01:40:32;;;;;;;13.02;7.18;;;11.60;99.90;;;;;;5085193;28;20078;-75
2022/01/02 01:43:00;;;;;;;11.60;6.57;;;11.70;99.90;;;;;;5093544;28;20119;-75
2022/01/02 01:45:30;;;;;;;11.55;7.50;;;11.60;99.90;;;;;;5082759;28;20066;-75
2022/01/02 01:47:57;;;;;;;11.93;7.00;;;11.80;99.90;;;;;;5092922;28;20174;-75
2022/01/02 01:50:28;;;;;;;14.25;7.53;;;11.60;99.90;;;;;;5088690;28;20068;-75
2022/01/02 01:52:55;;;;;;;14.15;8.07;;;11.60;99.90;;;;;;5094846;28;20071;-75
2022/01/02 01:55:21;;;;;;;12.75;7.00;;;11.50;99.90;;;;;;5089090;28;20127;-75
2022/01/02 01:57:50;;;;;;;11.73;6.88;;;11.70;99.90;;;;;;5091101;28;20091;-75
2022/01/02 02:00:18;;;;;;;11.80;6.97;;;11.70;99.90;;;;;;5105796;28;20059;-75
2022/01/02 02:02:45;;;;;;;11.73;7.22;;;11.60;99.90;;;;;;5094923;28;20062;-75
2022/01/02 02:05:11;;;;;;;14.32;7.38;;;11.60;99.90;;;;;;5088916;28;20048;-75
2022/01/02 02:07:41;;;;;;;12.02;6.57;;;11.60;99.90;;;;;;5088896;28;20050;-75
2022/01/02 02:10:15;;;;;;;14.95;7.75;;;11.60;99.90;;;;;;5088935;28;20063;-75
2022/01/02 02:12:43;;;;;;;12.13;7.45;;;11.70;99.90;;;;;;5088234;28;20044;-75
2022/01/02 02:15:11;;;;;;;13.30;7.18;;;11.70;99.90;;;;;;5088360;28;20503;-75
2022/01/02 02:17:37;;;;;;;15.50;7.25;;;11.60;99.90;;;;;;5088663;28;20044;-75
2022/01/02 02:20:35;;;;;;;12.20;7.75;;;11.70;99.90;;;;;;5088629;28;20047;-74
2022/01/02 02:23:01;;;;;;;13.35;7.20;;;11.70;99.90;;;;;;5080988;28;20048;-74
2022/01/02 02:25:32;;;;;;;13.85;7.47;;;11.50;99.90;;;;;;5088885;28;20083;-75
2022/01/02 02:28:07;;;;;;;10.35;7.15;;;11.70;99.90;;;;;;5094416;28;20075;-75
2022/01/02 02:30:36;;;;;;;12.13;6.43;;;11.60;99.90;;;;;;5089111;28;20039;-75
2022/01/02 02:33:04;;;;;;;13.50;7.60;;;11.70;99.90;;;;;;5107759;28;20044;-75
2022/01/02 02:35:31;;;;;;;13.07;6.95;;;11.70;99.90;;;;;;5083325;28;20060;-75
2022/01/02 02:37:57;;;;;;;14.32;7.05;;;11.70;99.90;;;;;;5085050;28;20044;-75
2022/01/02 02:40:25;;;;;;;11.10;6.72;;;11.60;99.90;;;;;;5089545;28;20061;-75
2022/01/02 02:42:56;;;;;;;12.23;6.68;;;11.60;99.90;;;;;;5088311;28;20044;-75
2022/01/02 02:51:13;;;;;;;11.45;6.85;;;11.70;99.90;;;;;;5099294;28;20056;-75
2022/01/02 02:53:43;;;;;;;14.65;8.25;;;11.80;99.90;;;;;;5089930;28;20448;-75
2022/01/02 02:56:40;;;;;;;14.27;6.90;;;11.70;99.90;;;;;;5080274;28;20547;-75
2022/01/02 02:59:07;;;;;;;14.68;7.63;;;11.70;99.90;;;;;;5080513;28;20051;-75
2022/01/02 03:01:33;;;;;;;12.25;7.45;;;11.80;99.90;;;;;;5091020;28;20048;-75
2022/01/02 03:03:59;;;;;;;12.35;6.40;;;11.60;99.90;;;;;;5088422;28;20044;-74
2022/01/02 03:06:24;;;;;;;13.30;7.50;;;11.80;99.90;;;;;;5088037;28;20050;-76
2022/01/02 03:08:51;;;;;;;19.27;8.20;;;11.70;99.90;;;;;;5088727;28;20408;-75
2022/01/02 03:11:20;;;;;;;12.88;7.15;;;11.70;99.90;;;;;;5088655;28;20154;-75
2022/01/02 03:13:48;;;;;;;15.48;7.07;;;11.70;99.90;;;;;;5071347;28;20044;-75
2022/01/02 03:16:14;;;;;;;13.15;7.10;;;11.70;99.90;;;;;;5087531;28;20044;-75
2022/01/02 03:18:40;;;;;;;13.70;8.02;;;11.80;99.90;;;;;;5105526;28;20128;-75
2022/01/02 03:21:06;;;;;;;12.45;7.18;;;11.60;99.90;;;;;;5106084;28;20056;-75
2022/01/02 03:23:32;;;;;;;14.52;7.65;;;11.60;99.90;;;;;;5106644;28;20055;-75
2022/01/02 03:25:58;;;;;;;13.90;7.72;;;11.70;99.90;;;;;;5088561;28;20047;-75
2022/01/02 03:28:24;;;;;;;12.30;8.23;;;11.90;99.90;;;;;;5105036;28;20044;-75
2022/01/02 03:30:50;;;;;;;19.60;8.25;;;11.70;99.90;;;;;;5088030;28;20044;-75
2022/01/02 03:33:16;;;;;;;16.23;8.10;;;11.60;99.90;;;;;;5087391;28;20128;-75
2022/01/02 03:35:42;;;;;;;16.45;8.18;;;11.70;99.90;;;;;;5086773;28;20040;-75
2022/01/02 03:38:08;;;;;;;16.40;8.45;;;11.70;99.90;;;;;;5109532;28;20040;-74
2022/01/02 03:40:34;;;;;;;13.10;7.10;;;11.80;99.90;;;;;;5088172;28;20048;-75
2022/01/02 03:43:00;;;;;;;14.95;7.93;;;11.80;99.90;;;;;;5104266;28;20051;-75
2022/01/02 03:45:26;;;;;;;18.02;7.55;;;11.80;99.90;;;;;;5089168;28;20044;-75
2022/01/02 03:47:52;;;;;;;17.75;8.20;;;11.90;99.90;;;;;;5091145;28;20051;-74
2022/01/02 03:50:18;;;;;;;14.07;7.13;;;11.80;99.90;;;;;;5106414;28;20048;-75
2022/01/02 03:52:44;;;;;;;11.80;6.32;;;12.00;99.90;;;;;;5106503;28;20122;-75
2022/01/02 03:55:10;;;;;;;13.88;6.47;;;11.90;99.90;;;;;;5106585;28;20082;-75
2022/01/02 03:57:37;;;;;;;15.20;7.40;;;12.00;99.90;;;;;;5085582;28;20059;-75
2022/01/02 04:00:09;;;;;;;13.73;6.85;;;12.00;99.90;;;;;;5087239;28;20451;-75
2022/01/02 04:02:37;;;;;;;15.93;6.97;;;11.90;99.90;;;;;;5108721;28;20071;-74
2022/01/02 04:05:07;;;;;;;13.77;7.57;;;11.90;99.90;;;;;;5103373;28;20052;-74
2022/01/02 04:07:33;;;;;;;;;;;11.90;99.90;;;;;;5084296;28;20128;-74
2022/01/02 04:10:05;;;;;;;14.07;7.05;;;11.80;99.90;;;;;;5085597;28;19920;-74
2022/01/02 04:12:34;;;;;;;15.43;7.20;;;11.60;99.90;;;;;;5091805;28;20058;-74
2022/01/02 04:15:02;;;;;;;13.85;7.13;;;11.80;99.90;;;;;;5092019;28;20044;-74
2022/01/02 04:17:28;;;;;;;15.65;7.00;;;11.80;99.90;;;;;;5110104;28;20047;-75
2022/01/02 04:19:54;;;;;;;14.60;7.55;;;11.70;99.90;;;;;;5088411;28;20039;-75
2022/01/02 04:22:20;;;;;;;18.58;8.10;;;11.80;99.90;;;;;;5090637;28;20137;-75
2022/01/02 04:24:46;;;;;;;16.05;6.93;;;11.70;99.90;;;;;;5093751;28;20097;-75
2022/01/02 04:27:11;;;;;;;13.80;6.60;;;11.80;99.90;;;;;;5090038;28;20040;-75
2022/01/02 04:29:37;;;;;;;19.55;7.13;;;11.80;99.90;;;;;;5090775;28;20054;-75
2022/01/02 04:32:03;;;;;;;15.07;6.90;;;11.80;99.90;;;;;;5110427;28;20043;-75
2022/01/02 04:34:29;;;;;;;13.68;6.45;;;11.60;99.90;;;;;;5090611;28;20036;-75
2022/01/02 04:36:54;;;;;;;13.70;7.43;;;11.80;99.90;;;;;;5091390;28;20547;-75
2022/01/02 04:39:20;;;;;;;18.90;7.53;;;11.70;99.90;;;;;;5090507;28;20046;-75
2022/01/02 04:41:46;;;;;;;11.32;6.15;;;11.60;99.90;;;;;;5107985;28;20044;-75
2022/01/02 04:44:11;;;;;;;17.40;7.20;;;11.70;99.90;;;;;;5090321;28;20040;-75
2022/01/02 04:46:37;;;;;;;15.48;7.13;;;11.60;99.90;;;;;;5108294;28;20059;-75
2022/01/02 04:49:03;;;;;;;11.18;6.20;;;11.80;99.90;;;;;;5087331;28;20064;-75
2022/01/02 04:51:28;;;;;;;16.98;8.20;;;11.70;99.90;;;;;;5092421;28;20043;-75
2022/01/02 04:53:54;;;;;;;14.77;7.00;;;11.80;99.90;;;;;;5112495;28;20043;-74
2022/01/02 04:56:20;;;;;;;14.13;6.60;;;11.70;99.90;;;;;;5112556;28;20032;-75
2022/01/02 04:58:46;;;;;;;15.57;6.97;;;11.70;99.90;;;;;;5093736;28;20076;-75
2022/01/02 05:01:16;;;;;;;13.23;6.68;;;11.70;99.90;;;;;;5094474;28;20076;-75
2022/01/02 05:03:42;;;;;;;;;;;11.70;99.90;;;;;;5070912;28;20079;-75
2022/01/02 05:06:08;;;;;;;11.60;6.00;;;11.80;99.90;;;;;;5109368;28;20032;-75
2022/01/02 05:08:35;;;;;;;23.80;6.78;;;11.80;99.90;;;;;;5072777;28;20119;-74
2022/01/02 05:11:01;;;;;;;13.88;6.82;;;11.70;99.90;;;;;;5087535;28;20616;-74
2022/01/02 05:13:27;;;;;;;16.08;6.20;;;11.70;99.90;;;;;;5106896;28;20044;-74
2022/01/02 05:15:53;;;;;;;14.70;6.55;;;11.80;99.90;;;;;;5084192;28;20174;-74
2022/01/02 05:18:18;;;;;;;17.20;6.28;;;11.70;99.90;;;;;;5089378;28;20075;-74
2022/01/02 05:20:46;;;;;;;13.38;5.80;;;11.70;99.90;;;;;;5084110;28;20050;-74
2022/01/02 05:23:16;;;;;;;17.08;6.60;;;11.80;99.90;;;;;;5106551;28;20047;-75
2022/01/02 05:25:42;;;;;;;14.48;7.30;;;11.80;99.90;;;;;;5091295;28;20066;-74
2022/01/02 05:28:09;;;;;;;14.30;5.40;;;11.80;99.90;;;;;;5089495;28;20048;-74
2022/01/02 05:30:36;;;;;;;15.73;6.10;;;11.80;99.90;;;;;;5088943;28;20048;-75
2022/01/02 05:33:03;;;;;;;17.75;7.05;;;11.90;99.90;;;;;;5088799;28;20048;-74
2022/01/02 05:35:30;;;;;;;13.05;5.93;;;11.90;99.90;;;;;;5089513;28;20052;-74
2022/01/02 05:37:55;;;;;;;14.32;5.78;;;11.80;99.90;;;;;;5073697;28;20127;-74
2022/01/02 05:40:21;;;;;;;15.77;6.20;;;12.00;99.90;;;;;;5107588;28;20039;-74
2022/01/02 05:42:47;;;;;;;12.65;5.80;;;12.00;99.90;;;;;;5095614;28;20138;-74
2022/01/02 05:45:13;;;;;;;14.13;5.82;;;11.90;99.90;;;;;;5109678;28;20039;-74
2022/01/02 05:47:39;;;;;;;15.73;6.43;;;12.00;99.90;;;;;;5107196;28;20107;-74
2022/01/02 05:50:06;;;;;;;14.20;5.78;;;12.00;99.90;;;;;;5092509;28;20043;-74
2022/01/02 05:52:32;;;;;;;11.98;5.55;;;11.90;99.90;;;;;;5111046;28;20044;-74
2022/01/02 05:54:58;;;;;;;12.60;5.35;;;11.90;99.90;;;;;;5089763;28;20055;-74
2022/01/02 05:57:24;;;;;;;11.48;5.13;;;12.10;99.90;;;;;;5088946;28;20055;-74
2022/01/02 05:59:50;;;;;;;12.73;5.38;;;12.00;99.90;;;;;;5112333;28;20050;-74
2022/01/02 06:02:16;;;;;;;17.10;5.63;;;12.00;99.90;;;;;;5089627;28;20120;-74
2022/01/02 06:04:41;;;;;;;12.50;4.65;;;12.00;99.90;;;;;;5088528;28;20039;-74
2022/01/02 06:07:08;;;;;;;17.27;6.20;;;12.00;99.90;;;;;;5085974;28;20055;-74
2022/01/02 06:09:34;;;;;;;12.70;5.65;;;12.10;99.90;;;;;;5109496;28;20065;-75
2022/01/02 06:12:00;;;;;;;11.05;4.82;;;12.20;99.90;;;;;;5088361;28;20048;-75
2022/01/02 06:14:25;;;;;;;15.90;5.10;;;12.30;99.90;;;;;;5107612;28;20051;-74
2022/01/02 06:16:51;;;;;;;15.90;5.53;;;12.30;99.90;;;;;;5091364;28;20117;-74
2022/01/02 06:19:17;;;;;;;10.80;4.18;;;12.30;99.90;;;;;;5086859;28;20056;-75
2022/01/02 06:21:43;;;;;;;16.13;5.22;;;12.30;99.90;;;;;;5088043;28;20069;-74
2022/01/02 06:24:08;;;;;;;8.98;3.92;;;12.50;99.90;;;;;;5089725;28;20043;-74
2022/01/02 06:26:34;;;;;;;10.07;4.13;;;12.40;99.90;;;;;;5089709;28;20055;-74
2022/01/02 06:29:03;;;;;;;10.10;4.10;;;12.50;99.90;;;;;;5094713;28;20046;-74
2022/01/02 06:31:29;;;;;;;16.00;4.72;;;12.40;99.90;;;;;;5104749;28;20052;-74
2022/01/02 06:33:55;;;;;;;12.07;3.78;;;12.50;99.90;;;;;;5088894;28;20043;-74
2022/01/02 06:36:21;;;;;;;11.88;3.88;;;12.60;99.90;;;;;;5087513;28;20492;-74
2022/01/02 06:38:47;;;;;;;9.20;4.30;;;12.60;99.90;;;;;;5090112;28;20055;-74
2022/01/02 06:41:12;;;;;;;8.02;3.40;;;12.70;99.90;;;;;;5080984;28;20056;-74
2022/01/02 06:43:39;;;;;;;9.93;3.70;;;12.70;99.90;;;;;;5090777;28;20048;-74
2022/01/02 06:46:05;;;;;;;8.93;3.88;;;12.70;99.90;;;;;;5111157;28;20458;-74
2022/01/02 06:48:31;;;;;;;15.88;4.82;;;12.80;99.90;;;;;;5092206;28;20103;-75
2022/01/02 06:50:57;;;;;;;11.30;3.60;;;12.80;99.90;;;;;;5071785;28;20048;-75
2022/01/02 06:53:23;;;;;;;12.05;3.80;;;12.80;99.90;;;;;;5078393;28;20044;-75
2022/01/02 06:55:48;;;;;;;7.82;3.00;;;12.80;99.90;;;;;;5070079;28;20047;-74
2022/01/02 06:58:14;;;;;;;9.15;4.00;;;12.90;99.90;;;;;;5090866;28;20044;-74
2022/01/02 07:00:41;;;;;;;8.93;3.15;;;12.90;99.90;;;;;;5087687;28;20047;-74
2022/01/02 07:03:07;;;;;;;10.18;3.55;;;12.90;99.90;;;;;;5087886;28;20044;-75
2022/01/02 07:05:33;;;;;;;14.02;3.78;;;13.00;99.90;;;;;;5088892;28;20138;-75
2022/01/02 07:07:58;;;;;;;7.45;3.67;;;12.80;99.90;;;;;;5088885;28;20096;-74
2022/01/02 07:10:24;;;;;;;9.50;3.78;;;12.80;99.90;;;;;;5072765;28;20040;-75
2022/01/02 07:12:50;;;;;;;7.82;3.95;;;12.70;99.90;;;;;;5091823;28;20054;-74
2022/01/02 07:15:16;;;;;;;9.02;3.60;;;12.70;99.90;;;;;;5091620;28;20044;-74
2022/01/02 07:17:42;;;;;;;8.95;3.40;;;12.70;99.90;;;;;;5106798;28;20051;-75
2022/01/02 07:20:09;;;;;;;8.30;4.45;;;12.70;99.90;;;;;;5082916;28;20044;-75
2022/01/02 07:22:35;;;;;;;12.40;3.92;;;12.60;99.90;;;;;;5087333;28;20043;-75
2022/01/02 07:25:02;;;;;;;10.52;4.00;;;12.70;99.90;;;;;;5089110;28;20115;-75
2022/01/02 07:27:27;;;;;;;9.43;3.30;;;12.60;99.90;;;;;;5086965;28;20087;-75
2022/01/02 07:29:55;;;;;;;7.75;3.60;;;12.40;99.90;;;;;;5090614;28;20043;-75
2022/01/02 07:32:20;;;;;;;11.32;4.32;;;12.50;99.90;;;;;;5085015;28;20077;-75
2022/01/02 07:34:46;;;;;;;15.38;4.47;;;12.60;99.90;;;;;;5085669;28;20072;-75
2022/01/02 07:37:12;;;;;;;7.32;3.55;;;12.60;99.90;;;;;;5087292;28;20051;-75
2022/01/02 07:39:38;;;;;;;11.02;4.15;;;12.50;99.90;;;;;;5092072;28;20075;-75
2022/01/02 07:42:04;;;;;;;9.23;4.25;;;12.50;99.90;;;;;;5086006;28;20051;-74
2022/01/02 07:44:30;;;;;;;13.98;4.18;;;12.50;99.90;;;;;;5086959;28;20048;-74
2022/01/02 07:46:56;;;;;;;7.13;3.15;;;12.50;99.90;;;;;;5106432;28;20107;-74
2022/01/02 07:49:21;;;;;;;7.93;3.40;;;12.60;99.90;;;;;;5088719;28;20055;-74
2022/01/02 07:51:47;;;;;;;13.65;4.15;;;12.70;99.90;;;;;;5087411;28;20060;-74
2022/01/02 07:54:13;;;;;;;10.18;4.38;;;12.60;99.90;;;;;;5082412;28;20043;-74
2022/01/02 07:56:40;;;;;;;10.20;4.30;;;12.50;99.90;;;;;;5087260;28;20060;-74
2022/01/02 07:59:06;;;;;;;10.55;5.22;;;12.50;99.90;;;;;;5087426;28;20077;-74
2022/01/02 08:01:32;;;;;;;10.30;4.60;;;12.70;99.90;;;;;;5086018;28;20075;-74
2022/01/02 08:03:58;;;;;;;8.55;3.70;;;12.50;99.90;;;;;;5070410;28;20044;-74
2022/01/02 08:06:23;;;;;;;7.78;4.38;;;12.70;99.90;;;;;;5090439;28;20032;-75
2022/01/02 08:08:49;;;;;;;10.48;4.70;;;12.70;99.90;;;;;;5073183;28;20036;-74
2022/01/02 08:11:16;;;;;;;11.23;5.30;;;12.50;99.90;;;;;;5089113;28;20071;-74
2022/01/02 08:13:44;;;;;;;10.38;5.43;;;12.50;99.90;;;;;;5088156;28;20096;-74
2022/01/02 08:16:12;;;;;;;9.85;4.50;;;12.50;99.90;;;;;;5087813;28;20048;-74
2022/01/02 08:18:38;;;;;;;7.90;4.40;;;12.40;99.90;;;;;;5087912;28;20055;-73
2022/01/02 08:21:04;;;;;;;8.18;4.40;;;12.30;99.90;;;;;;5086486;28;20052;-73
2022/01/02 08:23:30;;;;;;;9.48;4.93;;;12.30;99.90;;;;;;5083085;28;20519;-75
2022/01/02 08:25:56;;;;;;;14.02;4.95;;;12.40;99.90;;;;;;5086446;28;20063;-73
2022/01/02 08:28:21;;;;;;;9.88;4.22;;;12.20;99.90;;;;;;5095243;28;20044;-74
2022/01/02 08:30:47;;;;;;;8.43;4.22;;;12.30;99.90;;;;;;5105663;28;20050;-72
2022/01/02 08:33:14;;;;;;;12.43;4.88;;;12.40;99.90;;;;;;5112316;28;20082;-71
2022/01/02 08:35:42;;;;;;;8.45;4.88;;;12.30;99.90;;;;;;5110285;28;20099;-72
2022/01/02 08:38:07;;;;;;;10.55;4.05;;;12.40;99.90;;;;;;5115585;28;20082;-70
2022/01/02 08:40:34;;;;;;;8.20;4.35;;;12.50;99.90;;;;;;5116051;28;20056;-71
2022/01/02 08:43:00;;;;;;;7.72;4.00;;;12.40;99.90;;;;;;5115131;28;20051;-71
2022/01/02 08:45:25;;;;;;;10.10;4.57;;;12.40;99.90;;;;;;5111359;28;20039;-71
2022/01/02 08:47:51;;;;;;;10.98;4.97;;;12.40;99.90;;;;;;5113522;28;20043;-71
2022/01/02 08:50:17;;;;;;;8.65;3.60;;;12.30;99.90;;;;;;5114812;28;20475;-71
2022/01/02 08:52:43;;;;;;;8.70;4.07;;;12.40;99.90;;;;;;5116158;28;20067;-70
2022/01/02 08:55:08;;;;;;;10.85;4.43;;;12.20;99.90;;;;;;5115535;28;20067;-71
2022/01/02 08:57:34;;;;;;;10.48;4.80;;;12.20;99.90;;;;;;5112386;28;20047;-71
2022/01/02 09:00:01;;;;;;;10.27;4.70;;;12.20;99.90;;;;;;5112774;28;20055;-72
2022/01/02 09:02:27;;;;;;;9.27;4.30;;;12.20;99.90;;;;;;5104279;28;20047;-71
2022/01/02 09:04:53;;;;;;;9.70;4.03;;;12.20;99.90;;;;;;5097934;28;20581;-72
2022/01/02 09:07:18;;;;;;;10.35;4.35;;;12.40;99.90;;;;;;5115654;28;20036;-73
2022/01/02 09:09:45;;;;;;;8.05;4.07;;;12.20;99.90;;;;;;5116058;28;20044;-70
2022/01/02 09:12:12;;;;;;;10.35;4.03;;;12.10;99.90;;;;;;5098347;28;20053;-70
2022/01/02 09:14:38;;;;;;;7.82;4.45;;;12.10;99.90;;;;;;5109438;28;20059;-72
2022/01/02 09:17:03;;;;;;;8.43;3.80;;;12.10;99.90;;;;;;5104392;28;20126;-71
2022/01/02 09:19:29;;;;;;;7.32;3.20;;;12.30;99.90;;;;;;5102629;28;20121;-74
2022/01/02 09:21:55;;;;;;;8.57;4.25;;;12.30;99.90;;;;;;5105104;28;20066;-74
2022/01/02 09:24:20;;;;;;;7.72;4.28;;;12.10;99.90;;;;;;5103975;28;20044;-74
2022/01/02 09:26:46;;;;;;;9.15;4.07;;;12.30;99.90;;;;;;5077341;28;20048;-74
2022/01/02 09:29:12;;;;;;;7.65;4.20;;;12.30;99.90;;;;;;5072739;28;20040;-74
2022/01/02 09:31:38;;;;;;;8.18;4.20;;;12.10;99.90;;;;;;5089455;28;20040;-74
2022/01/02 09:34:03;;;;;;;10.07;5.03;;;12.20;99.90;;;;;;5089173;28;20093;-74
2022/01/02 09:36:29;;;;;;;11.23;4.60;;;12.20;99.90;;;;;;5078995;28;20408;-74
2022/01/02 09:38:56;;;;;;;7.85;4.18;;;12.30;99.90;;;;;;5087725;28;20098;-74
2022/01/02 09:41:22;;;;;;;10.15;4.65;;;12.20;99.90;;;;;;5106592;28;20549;-74
2022/01/02 09:43:48;;;;;;;9.68;4.22;;;12.40;99.90;;;;;;5087169;28;20040;-75
2022/01/02 09:46:22;;;;;;;11.02;4.78;;;12.30;99.90;;;;;;5085591;28;20052;-75
2022/01/02 09:48:49;;;;;;;8.15;4.38;;;12.40;99.90;;;;;;5087356;28;20048;-75
2022/01/02 09:51:21;;;;;;;10.00;4.15;;;12.30;99.90;;;;;;5104741;28;20077;-75
2022/01/02 09:53:47;;;;;;;10.50;4.03;;;12.30;99.90;;;;;;5086686;28;20075;-74
2022/01/02 09:56:17;;;;;;;10.68;3.85;;;12.40;99.90;;;;;;5088838;28;20089;-75
2022/01/02 09:58:44;;;;;;;8.20;3.92;;;12.50;99.90;;;;;;5091321;28;20079;-75
2022/01/02 10:01:18;;;;;;;9.38;4.60;;;12.50;99.90;;;;;;5105296;28;20131;-75
2022/01/02 10:03:46;;;;;;;8.55;4.22;;;12.50;99.90;;;;;;5103438;28;20063;-69
2022/01/02 10:06:12;;;;;;;9.45;4.57;;;12.60;99.90;;;;;;5105657;28;20097;-69
2022/01/02 10:08:38;;;;;;;7.80;4.25;;;12.60;99.90;;;;;;5098962;28;20048;-70
2022/01/02 10:11:08;;;;;;;10.02;4.07;;;12.60;99.90;;;;;;5096859;28;20119;-70
2022/01/02 10:13:42;;;;;;;8.70;4.30;;;12.60;99.90;;;;;;5096350;28;20377;-70
2022/01/02 10:16:33;;;;;;;11.43;5.18;;;12.60;99.90;;;;;;5090708;28;20111;-70
2022/01/02 10:19:36;;;;;;;12.20;4.88;;;12.50;99.90;;;;;;5101821;28;20043;-70
2022/01/02 10:22:04;;;;;;;9.18;4.60;;;12.60;99.90;;;;;;5116714;28;20048;-70
2022/01/02 10:24:32;;;;;;;7.63;4.43;;;12.70;99.90;;;;;;5100918;28;20082;-70
2022/01/02 10:27:05;;;;;;;8.32;5.25;;;12.60;99.90;;;;;;5081877;28;20055;-70
2022/01/02 10:29:47;;;;;;;10.40;4.97;;;12.50;99.90;;;;;;5093790;28;20051;-69
2022/01/02 10:32:34;;;;;;;8.05;4.18;;;12.50;99.90;;;;;;5114069;28;20407;-70
2022/01/02 10:35:11;;;;;;;10.43;4.75;;;12.50;99.90;;;;;;5094876;28;20076;-66
2022/01/02 10:37:37;;;;;;;9.55;4.93;;;12.50;99.90;;;;;;5094585;28;20506;-73
2022/01/02 10:40:04;;;;;;;11.68;4.75;;;12.40;99.90;;;;;;5086712;28;20036;-69
2022/01/02 10:42:41;;;;;;;8.82;4.72;;;12.60;99.90;;;;;;5085278;28;20051;-69
2022/01/02 10:45:07;;;;;;;7.38;4.22;;;12.50;99.90;;;;;;5080598;28;20048;-69
2022/01/02 10:47:33;;;;;;;11.95;5.32;;;12.50;99.90;;;;;;5080462;28;20054;-69
2022/01/02 10:50:07;;;;;;;6.43;4.43;;;12.50;99.90;;;;;;5085685;28;20048;-69
2022/01/02 10:52:38;;;;;;;7.45;4.75;;;12.40;99.90;;;;;;5068974;28;20051;-69
2022/01/02 10:55:16;;;;;;;7.28;5.25;;;12.40;99.90;;;;;;5105823;28;20122;-69
2022/01/02 10:57:43;;;;;;;8.15;5.28;;;12.40;99.90;;;;;;5070667;28;20032;-69
2022/01/02 11:00:10;;;;;;;12.13;5.30;;;12.40;99.90;;;;;;5103357;28;20059;-68
2022/01/02 11:02:38;;;;;;;13.82;5.45;;;12.40;99.90;;;;;;5090227;28;20052;-71
2022/01/02 11:05:07;;;;;;;9.88;4.80;;;12.60;99.90;;;;;;5092525;28;20079;-72
2022/01/02 11:07:43;;;;;;;12.85;5.95;;;12.60;99.90;;;;;;5091974;28;20052;-73
2022/01/02 11:10:11;;;;;;;7.95;5.20;;;12.70;99.90;;;;;;5091611;28;20051;-73
2022/01/02 11:12:41;;;;;;;8.85;5.18;;;12.70;99.90;;;;;;5087516;28;20048;-72
2022/01/02 11:15:18;;;;;;;8.18;4.55;;;12.70;99.90;;;;;;5089936;28;20154;-72
2022/01/02 11:17:44;;;;;;;11.55;5.20;;;12.60;99.90;;;;;;5091960;28;20040;-71
2022/01/02 11:20:13;;;;;;;9.73;5.38;;;12.70;99.90;;;;;;5091777;28;20044;-71
2022/01/02 11:23:00;;;;;;;9.80;4.57;;;12.70;99.90;;;;;;5094578;28;20065;-71
2022/01/02 11:26:04;;;;;;;9.25;4.93;;;12.60;99.90;;;;;;5071227;28;20358;-72
2022/01/02 11:28:45;;;;;;;7.22;4.13;;;12.60;99.90;;;;;;5044780;28;20097;-72
2022/01/02 11:31:25;;;;;;;9.70;5.32;;;12.60;99.90;;;;;;5117809;28;20058;-71
2022/01/02 11:33:51;;;;;;;8.75;5.47;;;12.60;99.90;;;;;;5099805;28;20044;-71
2022/01/02 11:36:26;;;;;;;8.52;4.82;;;12.60;99.90;;;;;;5102211;28;20115;-71
2022/01/02 11:38:58;;;;;;;9.68;5.03;;;12.40;99.90;;;;;;5097506;28;20031;-70
2022/01/02 11:41:39;;;;;;;8.68;5.32;;;12.40;99.90;;;;;;5100229;28;20088;-71
2022/01/02 11:44:10;;;;;;;11.35;5.15;;;12.40;99.90;;;;;;5100840;28;20051;-71
2022/01/02 11:46:48;;;;;;;11.85;5.50;;;12.40;99.90;;;;;;5096962;28;20133;-71
2022/01/02 11:49:41;;;;;;;11.25;5.20;;;12.40;99.90;;;;;;5081952;28;20055;-71
2022/01/02 11:52:21;;;;;;;9.73;5.35;;;12.40;99.90;;;;;;5116863;28;20043;-71
2022/01/02 11:54:53;;;;;;;11.35;5.70;;;12.40;99.90;;;;;;5099247;28;20044;-71
2022/01/02 11:57:27;;;;;;;9.50;5.70;;;12.40;99.90;;;;;;5071744;28;20044;-70
2022/01/02 11:59:59;;;;;;;8.95;4.97;;;12.40;99.90;;;;;;5043309;28;20134;-71
2022/01/02 12:02:27;;;;;;;9.55;5.93;;;12.40;99.90;;;;;;5065355;28;20071;-75
2022/01/02 12:05:03;;;;;;;8.85;5.70;;;12.30;99.90;;;;;;5071206;28;20386;-68
2022/01/02 12:07:53;;;;;;;10.15;4.57;;;12.40;99.90;;;;;;5066336;28;20340;-68
2022/01/02 12:10:21;;;;;;;10.05;5.18;;;12.30;99.90;;;;;;5058314;28;20535;-66
2022/01/02 12:13:06;;;;;;;13.05;5.15;;;12.30;99.90;;;;;;5068289;28;20533;-67
2022/01/02 12:15:32;;;;;;;9.90;5.18;;;12.30;99.90;;;;;;5058435;28;20044;-67
2022/01/02 12:18:16;;;;;;;9.70;5.40;;;12.30;99.90;;;;;;5067969;28;20113;-67
2022/01/02 12:20:51;;;;;;;11.73;4.93;;;12.30;99.90;;;;;;5075982;28;20076;-68
2022/01/02 12:23:41;;;;;;;9.45;5.00;;;12.20;99.90;;;;;;5067443;28;20681;-67
2022/01/02 12:26:11;;;;;;;12.23;4.47;;;12.30;99.90;;;;;;5074189;28;20404;-67
2022/01/02 12:28:38;;;;;;;;;;;12.30;99.90;;;;;;5039473;28;20063;-67
2022/01/02 12:31:05;;;;;;;11.52;4.43;;;12.30;99.90;;;;;;5063721;28;19921;-66
2022/01/02 12:33:32;;;;;;;8.95;3.63;;;12.20;99.90;;;;;;5045729;28;20047;-66
2022/01/02 12:36:09;;;;;;;9.82;3.60;;;12.20;99.90;;;;;;5065307;28;20082;-67
2022/01/02 12:38:51;;;;;;;11.52;4.65;;;12.20;99.90;;;;;;5066951;28;20045;-66
2022/01/02 12:41:18;;;;;;;10.40;3.30;;;12.20;99.90;;;;;;5069323;28;20179;-67
2022/01/02 12:43:53;;;;;;;10.00;3.20;;;12.20;99.90;;;;;;5067326;28;20041;-73
2022/01/02 12:46:39;;;;;;;10.48;3.42;;;12.20;99.90;;;;;;5067049;28;20049;-73
2022/01/02 12:49:14;;;;;;;10.40;2.95;;;12.20;99.90;;;;;;5066374;28;20077;-70
2022/01/02 12:51:43;;;;;;;9.70;3.20;;;12.20;99.90;;;;;;5066308;28;20041;-71
2022/01/02 12:54:11;;;;;;;14.50;3.72;;;12.10;99.90;;;;;;5069810;28;20079;-70